Estación Meteorológica Peña el Pijo (Robertgarden) [ 01/30/23 13:34:48 CET ]

Fecha Hora Presion(HPa) Temp (°C) Humedad % Rocio (°C) Viento ( m/s) Direccion Lluvia 1Hora(mm) Lluvia 24H(mm) LLuvia Total(mm)
2012-Jul-06 01:01:13 1009.400 14.8 46 3.2         167.83
2012-Jul-06 02:01:12 1009.600 13.1 50 2.9         167.83
2012-Jul-06 03:01:47 1009.200 11.9 49 1.5         167.83
2012-Jul-06 04:01:41 1009.000 12.8 44 0.8         167.83
2012-Jul-06 05:01:43 1008.500 13.2 42 0.5         167.83
2012-Jul-06 06:01:46 1008.600 13.2 41 0.2         167.83
2012-Jul-06 07:01:13 1008.800 11.4 44 -0.5         167.83
2012-Jul-06 08:01:14 1009.100 12.6 49 2.1         167.83
2012-Jul-06 09:01:11 1009.200 19.3 42 6.0         167.83
2012-Jul-06 10:01:13 1009.100 25.5 31 7.1         167.83
2012-Jul-06 11:01:14 1008.900 29.2 20 4.0         167.83
2012-Jul-06 12:01:18 1008.800 30.9 15 0.6 2.5 ENE     167.83
2012-Jul-06 13:01:21 1008.600 32.5 14 0.9         167.83
2012-Jul-06 14:01:17 1008.400 32.7 14 1.0         167.83
2012-Jul-06 15:01:17 1008.300 34.1 13 1.1         167.83
2012-Jul-06 16:01:15 1008.500 35.4 10 -0.8         167.83
2012-Jul-06 17:01:13 1008.300 35.8 10 -0.5         167.83
2012-Jul-06 18:01:20 1008.100 34.4 - - 1.2 SSW     167.83
2012-Jul-06 19:01:13 1007.800 33.5 - -         167.83
2012-Jul-06 20:01:12 1008.200 31.4 11 -2.9         167.83
2012-Jul-06 21:01:11 1008.700 27.1 12 -5.2 0.6 SSW     167.83
2012-Jul-06 22:01:17 1009.100 22.7 19 -2.3         167.83
2012-Jul-06 23:01:15 1010.100 19.2 25 -1.5         167.83

Temperatura Máxima:35°    Temperatura Mínima:11°
Presión Máxima:1010.100 Hpa    Presión Mínima:1007.800 Hpa


Volver